Time;durP1;ratioP1;P1;durP2;ratioP2;P2;SDS_P1;SDS_P2;PMS_P1;PMS_P2;Temp;Humidity;BMP_temperature;BMP_pressure;BME280_temperature;BME280_humidity;BME280_pressure;Samples;Min_cycle;Max_cycle;Signal;HPM_P1;HPM_P2
2022/05/29 00:01:58;;;;;;;;;1.00;1.00;;;;;29.14;19.83;101373.81;4995952;28;45441;-81
2022/05/29 00:04:24;;;;;;;;;1.67;1.00;;;;;29.11;20.12;101391.25;4929410;28;45643;-81
2022/05/29 00:06:53;;;;;;;;;3.33;1.00;;;;;28.89;20.48;101355.91;4917525;28;46403;-81
2022/05/29 00:09:25;;;;;;;;;1.00;1.00;;;;;29.13;19.83;101385.69;4917182;28;45320;-81
2022/05/29 00:11:51;;;;;;;;;2.00;1.00;;;;;29.02;20.06;101370.72;4900584;28;45426;-81
2022/05/29 00:14:16;;;;;;;;;1.00;1.00;;;;;28.84;20.29;101361.56;4917544;28;45643;-81
2022/05/29 00:16:42;;;;;;;;;2.00;1.00;;;;;28.73;20.46;101345.72;4917353;28;46301;-81
2022/05/29 00:19:07;;;;;;;;;1.00;1.00;;;;;28.94;20.43;101367.47;4917635;28;45369;-81
2022/05/29 00:21:35;;;;;;;;;0.33;0.33;;;;;28.91;20.47;101357.59;4917413;28;45880;-81
2022/05/29 00:24:01;;;;;;;;;2.00;1.00;;;;;28.93;20.20;101354.81;4917198;28;45394;-81
2022/05/29 00:26:26;;;;;;;;;1.00;1.00;;;;;29.09;20.33;101366.72;4917181;28;46180;-81
2022/05/29 00:28:51;;;;;;;;;1.67;1.00;;;;;29.01;20.17;101348.94;4916795;28;45413;-81
2022/05/29 00:31:17;;;;;;;;;1.00;1.00;;;;;29.00;20.25;101342.63;4917417;28;45384;-81
2022/05/29 00:33:42;;;;;;;;;1.00;1.00;;;;;28.74;20.00;101306.53;4917440;28;45313;-81
2022/05/29 00:36:10;;;;;;;;;1.00;1.00;;;;;28.80;20.57;101331.78;4915829;28;47805;-81
2022/05/29 00:38:39;;;;;;;;;1.00;1.00;;;;;28.59;20.64;101353.63;4916524;28;45485;-81
2022/05/29 00:41:17;;;;;;;;;4.00;1.00;;;;;28.51;20.99;101347.66;4917434;28;45347;-81
2022/05/29 00:43:43;;;;;;;;;1.00;1.00;;;;;28.84;20.87;101344.31;4917303;28;45571;-81
2022/05/29 00:46:09;;;;;;;;;1.00;1.00;;;;;29.02;20.53;101357.06;4917030;28;45260;-81
2022/05/29 00:48:34;;;;;;;;;1.00;1.00;;;;;29.02;20.69;101351.59;4915716;28;45340;-81
2022/05/29 00:51:07;;;;;;;;;1.00;1.00;;;;;28.90;20.63;101360.41;4916998;28;45458;-81
2022/05/29 00:53:33;;;;;;;;;1.33;1.33;;;;;28.69;20.60;101343.19;4916839;28;45452;-81
2022/05/29 00:56:08;;;;;;;;;1.00;1.00;;;;;28.66;20.87;101363.34;4916979;28;45574;-81
2022/05/29 00:58:34;;;;;;;;;1.00;1.00;;;;;28.71;20.97;101364.00;4917100;28;45223;-81
2022/05/29 01:01:02;;;;;;;;;1.00;1.00;;;;;28.87;20.63;101377.81;4917151;28;45446;-81
2022/05/29 01:03:27;;;;;;;;;1.00;1.00;;;;;28.60;20.79;101340.91;4916782;28;45434;-81
2022/05/29 01:05:53;;;;;;;;;1.00;1.00;;;;;28.57;20.83;101371.94;4916943;28;45756;-81
2022/05/29 01:08:32;;;;;;;;;1.00;1.00;;;;;28.57;21.01;101361.03;4915248;28;45453;-81
2022/05/29 01:11:23;;;;;;;;;1.67;1.33;;;;;28.45;21.08;101358.88;4916695;28;45393;-81
2022/05/29 01:14:08;;;;;;;;;1.00;1.00;;;;;28.26;21.30;101334.28;4916984;28;45405;-80
2022/05/29 01:16:51;;;;;;;;;2.00;1.00;;;;;28.61;21.11;101354.47;4916683;28;45447;-81
2022/05/29 01:19:46;;;;;;;;;1.67;1.00;;;;;28.65;20.99;101355.22;4915484;28;45449;-81
2022/05/29 01:22:49;;;;;;;;;1.33;1.00;;;;;28.47;21.22;101359.69;4915111;28;45483;-81
2022/05/29 01:26:00;;;;;;;;;1.00;1.00;;;;;28.41;21.18;101350.81;4915388;28;45600;-81
2022/05/29 01:28:43;;;;;;;;;1.00;1.00;;;;;28.43;21.45;101341.69;4916185;28;46437;-81
2022/05/29 01:31:25;;;;;;;;;1.00;1.00;;;;;28.45;21.16;101337.03;4916712;28;45562;-81
2022/05/29 01:34:09;;;;;;;;;1.33;1.33;;;;;28.49;21.21;101336.81;4915583;28;45517;-81
2022/05/29 01:36:35;;;;;;;;;1.00;1.00;;;;;28.46;21.29;101330.63;4916323;28;45700;-81
2022/05/29 01:39:09;;;;;;;;;1.00;1.00;;;;;28.33;21.35;101328.47;4916306;28;45494;-81
2022/05/29 01:41:44;;;;;;;;;2.67;1.00;;;;;28.05;21.71;101337.91;4915397;28;45428;-80
2022/05/29 01:44:36;;;;;;;;;1.00;1.00;;;;;27.99;21.85;101329.09;4916695;28;45563;-81
2022/05/29 01:47:25;;;;;;;;;4.67;1.67;;;;;28.04;22.10;101335.25;4919518;28;45552;-81
2022/05/29 01:49:59;;;;;;;;;2.33;1.00;;;;;28.01;21.81;101300.81;4916188;28;46022;-81
2022/05/29 01:52:27;;;;;;;;;3.00;1.00;;;;;27.95;22.09;101331.06;4915018;28;45401;-81
2022/05/29 01:55:00;;;;;;;;;1.00;1.00;;;;;27.99;22.19;101323.66;4916564;28;45521;-81
2022/05/29 01:57:33;;;;;;;;;1.00;1.00;;;;;28.06;21.91;101326.03;4916244;28;45328;-81
2022/05/29 02:00:08;;;;;;;;;1.00;1.00;;;;;28.02;21.78;101321.69;4916199;28;45592;-81
2022/05/29 02:02:45;;;;;;;;;1.00;1.00;;;;;28.02;21.81;101324.41;4916064;28;45425;-81
2022/05/29 02:05:19;;;;;;;;;1.00;1.00;;;;;27.95;21.84;101301.06;4916055;28;45440;-81
2022/05/29 02:07:48;;;;;;;;;3.00;2.00;;;;;27.89;21.68;101285.00;4914865;28;45543;-81
2022/05/29 02:10:19;;;;;;;;;1.00;1.00;;;;;27.95;22.06;101319.28;4916081;28;45920;-81
2022/05/29 02:13:16;;;;;;;;;3.00;2.00;;;;;27.93;22.13;101310.28;4916095;28;45309;-81
2022/05/29 02:16:04;;;;;;;;;1.00;1.00;;;;;28.06;21.84;101319.72;4914853;28;45491;-81
2022/05/29 02:18:46;;;;;;;;;1.00;1.00;;;;;27.75;22.57;101315.59;4915799;28;45256;-81
2022/05/29 02:21:36;;;;;;;;;6.33;2.00;;;;;27.60;22.85;101286.28;4916054;28;45400;-81
2022/05/29 02:24:08;;;;;;;;;1.00;1.00;;;;;27.63;21.79;101288.88;4925555;28;45218;-81
2022/05/29 02:26:40;;;;;;;;;1.00;1.00;;;;;27.49;22.34;101293.06;4915858;28;45454;-81
2022/05/29 02:29:11;;;;;;;;;2.00;1.33;;;;;27.46;22.76;101295.94;4914519;28;45381;-81
2022/05/29 02:31:39;;;;;;;;;3.33;1.00;;;;;27.25;23.23;101305.88;4915620;28;45419;-81
2022/05/29 02:34:49;;;;;;;;;1.00;1.00;;;;;27.39;23.03;101295.31;4914323;28;45755;-81
2022/05/29 02:37:33;;;;;;;;;1.00;1.00;;;;;27.83;22.84;101307.06;4922228;28;45593;-81
2022/05/29 02:40:29;;;;;;;;;1.00;1.00;;;;;27.61;22.99;101305.31;4915942;28;45567;-81
2022/05/29 02:43:11;;;;;;;;;3.00;1.33;;;;;27.54;22.86;101299.22;4915565;28;45424;-81
2022/05/29 02:45:51;;;;;;;;;1.00;1.00;;;;;27.71;22.76;101303.94;4914328;28;45739;-81
2022/05/29 02:48:35;;;;;;;;;2.00;2.00;;;;;27.65;22.73;101303.31;4915577;28;45391;-81
2022/05/29 02:51:26;;;;;;;;;2.00;2.00;;;;;27.40;23.00;101301.66;4914420;28;45507;-81
2022/05/29 02:53:51;;;;;;;;;2.33;2.00;;;;;27.28;23.40;101291.25;4915507;28;46577;-81
2022/05/29 02:56:17;;;;;;;;;2.00;2.00;;;;;27.25;23.09;101273.19;4914160;28;45474;-81
2022/05/29 02:58:47;;;;;;;;;1.67;1.67;;;;;27.15;23.26;101255.50;4915546;28;45492;-81
2022/05/29 03:01:22;;;;;;;;;2.00;2.00;;;;;27.54;23.02;101295.63;4915801;28;45400;-81
2022/05/29 03:04:19;;;;;;;;;3.33;2.00;;;;;27.37;23.09;101283.59;4913594;28;46507;-81
2022/05/29 03:06:52;;;;;;;;;3.00;3.00;;;;;27.14;23.36;101259.16;4954093;28;45457;-81
2022/05/29 03:09:43;;;;;;;;;2.00;2.00;;;;;27.32;23.44;101285.59;4938278;28;45487;-81
2022/05/29 03:12:33;;;;;;;;;3.67;2.00;;;;;27.24;23.58;101286.88;4954355;28;45568;-81
2022/05/29 03:15:24;;;;;;;;;1.00;1.00;;;;;27.20;23.39;101275.22;4954334;28;45497;-81
2022/05/29 03:17:49;;;;;;;;;1.00;1.00;;;;;27.26;23.33;101287.69;4953834;28;45453;-81
2022/05/29 03:20:24;;;;;;;;;2.00;2.00;;;;;27.31;23.36;101299.28;4954337;28;45642;-81
2022/05/29 03:22:55;;;;;;;;;2.67;2.67;;;;;27.30;23.24;101292.97;4954246;28;45477;-81
2022/05/29 03:25:41;;;;;;;;;2.00;2.00;;;;;27.06;23.20;101262.22;4953828;28;47034;-81
2022/05/29 03:28:15;;;;;;;;;3.67;3.00;;;;;27.09;23.35;101267.53;4953804;28;45496;-81
2022/05/29 03:30:41;;;;;;;;;2.00;1.67;;;;;27.21;23.54;101272.47;4954042;28;45338;-81
2022/05/29 03:33:09;;;;;;;;;4.00;3.00;;;;;27.11;23.60;101257.44;4954098;28;45412;-81
2022/05/29 03:35:46;;;;;;;;;3.00;2.00;;;;;27.15;23.51;101289.03;4953785;28;45740;-81
2022/05/29 03:38:12;;;;;;;;;2.00;2.00;;;;;27.10;23.47;101272.03;4954113;28;45383;-81
2022/05/29 03:40:39;;;;;;;;;2.00;2.00;;;;;27.35;23.49;101296.41;4954028;28;45597;-81
2022/05/29 03:43:05;;;;;;;;;3.00;3.00;;;;;27.35;23.24;101258.25;4947607;28;45490;-81
2022/05/29 03:45:31;;;;;;;;;1.00;1.00;;;;;27.34;23.55;101283.72;4914598;28;46396;-81
2022/05/29 03:47:56;;;;;;;;;3.33;2.33;;;;;27.22;23.73;101254.28;4914520;28;45521;-81
2022/05/29 03:50:24;;;;;;;;;2.33;2.33;;;;;27.36;23.49;101264.59;4914897;28;45516;-81
2022/05/29 03:52:49;;;;;;;;;2.67;2.00;;;;;27.42;23.68;101285.25;4914703;28;45342;-81
2022/05/29 03:55:16;;;;;;;;;3.67;3.00;;;;;27.29;23.56;101272.13;4914665;28;46350;-81
2022/05/29 03:57:42;;;;;;;;;2.00;2.00;;;;;27.25;23.52;101259.56;4914586;28;45437;-81
2022/05/29 04:00:10;;;;;;;;;3.00;3.00;;;;;27.24;23.35;101265.09;4914826;28;45285;-81
2022/05/29 04:02:36;;;;;;;;;3.33;2.00;;;;;27.16;23.64;101263.59;4912998;28;46051;-81
2022/05/29 04:05:02;;;;;;;;;2.33;2.00;;;;;27.22;23.61;101276.06;4916379;28;46271;-81
2022/05/29 04:12:57;;;;;;;;;2.67;1.67;;;;;27.41;23.64;101272.56;4917418;28;45413;-81
2022/05/29 04:15:23;;;;;;;;;4.33;3.00;;;;;27.54;23.26;101268.38;4917148;28;46071;-81
2022/05/29 04:17:48;;;;;;;;;2.00;2.00;;;;;27.62;23.21;101268.00;4917435;28;45502;-81
2022/05/29 04:20:14;;;;;;;;;2.00;2.00;;;;;27.56;23.08;101263.72;4917755;28;45523;-81
2022/05/29 04:22:39;;;;;;;;;3.33;2.00;;;;;27.60;23.75;101262.63;4917271;28;45414;-81
2022/05/29 04:25:05;;;;;;;;;2.00;2.00;;;;;27.75;23.04;101276.53;4917459;28;45373;-81
2022/05/29 04:27:30;;;;;;;;;3.33;2.33;;;;;27.62;23.20;101255.25;4916949;28;45368;-81
2022/05/29 04:29:56;;;;;;;;;4.00;2.33;;;;;27.77;23.15;101285.53;4916986;28;45364;-80
2022/05/29 04:35:05;;;;;;;;;2.33;2.33;;;;;27.63;23.17;101270.69;4917339;28;45403;-81
2022/05/29 04:37:30;;;;;;;;;2.00;2.00;;;;;27.60;23.21;101268.09;4917052;28;45499;-81
2022/05/29 04:39:56;;;;;;;;;1.33;1.00;;;;;27.87;23.11;101278.72;4917493;28;45385;-81
2022/05/29 04:42:21;;;;;;;;;3.00;2.00;;;;;27.90;22.90;101281.28;4915926;28;45419;-81
2022/05/29 04:44:47;;;;;;;;;2.33;2.00;;;;;27.53;23.31;101221.13;4916765;28;46246;-81
2022/05/29 04:47:12;;;;;;;;;2.00;2.00;;;;;27.83;22.97;101274.34;4917330;28;45374;-81
2022/05/29 04:49:39;;;;;;;;;3.00;2.00;;;;;27.85;23.23;101286.09;4917096;28;45401;-81
2022/05/29 04:52:06;;;;;;;;;2.00;2.00;;;;;27.56;23.19;101239.19;4917212;28;45432;-81
2022/05/29 04:54:37;;;;;;;;;2.00;2.00;;;;;27.78;23.20;101276.38;4916857;28;45686;-81
2022/05/29 04:57:04;;;;;;;;;1.67;1.67;;;;;27.95;23.30;101267.47;4915660;28;45441;-81
2022/05/29 04:59:29;;;;;;;;;2.00;2.00;;;;;28.06;23.14;101254.25;4916626;28;45309;-81
2022/05/29 05:01:58;;;;;;;;;2.67;2.67;;;;;28.05;22.84;101277.03;4916803;28;45522;-81
2022/05/29 05:04:24;;;;;;;;;3.00;3.00;;;;;28.16;22.86;101287.44;4917043;28;45696;-81
2022/05/29 05:06:49;;;;;;;;;2.00;2.00;;;;;28.19;22.71;101277.25;4916569;28;45388;-81
2022/05/29 05:09:15;;;;;;;;;3.00;2.00;;;;;28.05;22.95;101272.44;4915708;28;45424;-81
2022/05/29 05:11:40;;;;;;;;;2.00;2.00;;;;;28.07;22.95;101256.00;4916823;28;45250;-81
2022/05/29 05:14:05;;;;;;;;;3.00;3.00;;;;;28.28;22.70;101259.56;4916493;28;46343;-81
2022/05/29 05:16:31;;;;;;;;;2.33;1.33;;;;;28.49;22.78;101275.88;4915574;28;45290;-81
2022/05/29 05:18:56;;;;;;;;;3.00;3.00;;;;;28.39;22.71;101249.03;4916801;28;45765;-81
2022/05/29 05:21:22;;;;;;;;;3.33;2.00;;;;;28.35;22.21;101266.50;4917038;28;45462;-81
2022/05/29 05:23:47;;;;;;;;;3.67;3.67;;;;;28.14;23.11;101251.16;4916421;28;46606;-81
2022/05/29 05:26:15;;;;;;;;;3.00;3.00;;;;;28.06;23.02;101274.22;4916762;28;45340;-81
2022/05/29 05:28:41;;;;;;;;;3.00;3.00;;;;;27.91;23.17;101261.25;4916161;28;45533;-81
2022/05/29 05:31:06;;;;;;;;;4.33;2.00;;;;;27.81;23.49;101260.78;4916779;28;45455;-81
2022/05/29 05:33:32;;;;;;;;;5.67;3.33;;;;;27.91;23.27;101261.25;4916360;28;46218;-81
2022/05/29 05:35:57;;;;;;;;;3.00;3.00;;;;;27.82;23.47;101262.56;4916643;28;45447;-81
2022/05/29 05:38:22;;;;;;;;;4.33;4.00;;;;;27.80;23.24;101236.31;4916648;28;45367;-81
2022/05/29 05:40:49;;;;;;;;;3.00;3.00;;;;;28.07;23.52;101247.81;4916005;28;45586;-81
2022/05/29 05:43:14;;;;;;;;;1.33;1.33;;;;;27.90;23.46;101227.66;4915934;28;45927;-81
2022/05/29 05:45:41;;;;;;;;;3.00;3.00;;;;;27.72;23.18;101212.13;4916352;28;45504;-81
2022/05/29 05:48:07;;;;;;;;;3.33;2.67;;;;;27.73;23.21;101217.53;4916568;28;45484;-81
2022/05/29 05:50:33;;;;;;;;;5.33;3.67;;;;;27.73;23.45;101250.25;4916385;28;45538;-81
2022/05/29 05:52:58;;;;;;;;;4.00;3.00;;;;;27.64;23.35;101253.38;4916135;28;46229;-80
2022/05/29 05:55:23;;;;;;;;;3.33;3.33;;;;;27.52;23.90;101253.91;4916267;28;45527;-81
2022/05/29 05:57:49;;;;;;;;;4.00;2.33;;;;;27.55;23.87;101261.94;4915825;28;45590;-81
2022/05/29 06:00:15;;;;;;;;;3.00;3.00;;;;;27.85;23.46;101267.00;4916369;28;45535;-81
2022/05/29 06:02:42;;;;;;;;;4.00;4.00;;;;;27.91;23.15;101277.63;4916006;28;46383;-81
2022/05/29 06:05:09;;;;;;;;;4.67;3.33;;;;;28.01;23.31;101259.91;4914836;28;45924;-81
2022/05/29 06:07:35;;;;;;;;;2.00;2.00;;;;;27.97;23.27;101263.69;4916304;28;45357;-81
2022/05/29 06:10:00;;;;;;;;;3.33;2.00;;;;;28.04;22.98;101264.34;4916065;28;45400;-81
2022/05/29 06:12:25;;;;;;;;;1.33;1.00;;;;;28.12;23.08;101267.59;4914554;28;48116;-81
2022/05/29 06:14:51;;;;;;;;;4.00;4.00;;;;;27.79;23.44;101267.25;4914573;28;45909;-81
2022/05/29 06:17:16;;;;;;;;;3.00;3.00;;;;;27.97;22.80;101251.91;4916198;28;45320;-81
2022/05/29 06:19:42;;;;;;;;;2.67;2.00;;;;;28.03;22.85;101249.81;4916200;28;45377;-81
2022/05/29 06:22:07;;;;;;;;;1.00;1.00;;;;;28.13;22.99;101238.47;4915884;28;45434;-81
2022/05/29 06:24:33;;;;;;;;;2.00;2.00;;;;;27.95;22.59;101193.84;4916109;28;45484;-81
2022/05/29 06:26:59;;;;;;;;;3.67;2.00;;;;;28.42;22.66;101267.09;4915343;28;45477;-81
2022/05/29 06:29:25;;;;;;;;;2.33;2.33;;;;;28.43;22.66;101229.78;4915598;28;45488;-81
2022/05/29 06:31:50;;;;;;;;;3.33;2.67;;;;;28.28;22.72;101250.50;4915658;28;45377;-81
2022/05/29 06:34:15;;;;;;;;;2.00;2.00;;;;;28.57;22.63;101254.56;4914472;28;45375;-81
2022/05/29 06:36:41;;;;;;;;;4.00;1.00;;;;;28.49;22.38;101243.13;4916003;28;45353;-81
2022/05/29 06:39:06;;;;;;;;;2.67;2.00;;;;;28.45;22.58;101260.63;4916004;28;45372;-81
2022/05/29 06:41:33;;;;;;;;;0.00;0.00;;;;;28.32;22.68;101242.09;4915519;28;45726;-81
2022/05/29 06:43:59;;;;;;;;;1.67;1.67;;;;;28.05;22.75;101219.75;4915500;28;45348;-81
2022/05/29 06:46:25;;;;;;;;;1.00;1.00;;;;;28.16;22.78;101255.59;4916043;28;45400;-81
2022/05/29 06:48:50;;;;;;;;;2.00;2.00;;;;;28.39;22.26;101238.09;4915580;28;45332;-81
2022/05/29 06:51:21;;;;;;;;;1.00;1.00;;;;;27.97;22.32;101211.00;4915662;28;45324;-81
2022/05/29 06:53:51;;;;;;;;;2.67;1.67;;;;;28.48;22.73;101265.91;4915174;28;45506;-81
2022/05/29 06:56:17;;;;;;;;;2.00;1.00;;;;;28.57;22.06;101249.09;4915301;28;45408;-81
2022/05/29 06:58:43;;;;;;;;;2.00;1.00;;;;;28.72;22.05;101258.41;4915592;28;45519;-81
2022/05/29 07:09:24;;;;;;;;;2.00;1.33;;;;;28.97;21.69;101252.59;4915133;28;45356;-81
2022/05/29 07:11:56;;;;;;;;;2.33;1.00;;;;;28.75;21.38;101236.44;4915096;28;45483;-81
2022/05/29 07:14:22;;;;;;;;;3.00;1.67;;;;;28.92;21.39;101249.25;4914198;28;45343;-81
2022/05/29 07:16:47;;;;;;;;;0.00;0.00;;;;;29.12;21.36;101250.06;4914180;28;45227;-81
2022/05/29 07:19:14;;;;;;;;;5.00;1.00;;;;;29.07;20.98;101248.47;4915486;28;45455;-81
2022/05/29 07:21:42;;;;;;;;;1.00;1.00;;;;;29.09;21.41;101260.19;4915180;28;45597;-81
2022/05/29 07:24:09;;;;;;;;;2.00;2.00;;;;;28.97;20.80;101257.19;4914848;28;45467;-81
2022/05/29 07:26:35;;;;;;;;;2.00;2.00;;;;;28.75;21.19;101242.78;4913986;28;45954;-81
2022/05/29 07:29:00;;;;;;;;;1.67;1.00;;;;;28.93;20.75;101234.63;4914901;28;45482;-81
2022/05/29 07:31:26;;;;;;;;;1.33;1.33;;;;;28.78;20.85;101273.63;4913994;28;47183;-81
2022/05/29 07:33:51;;;;;;;;;1.00;1.00;;;;;28.39;20.78;101234.50;4915148;28;45571;-81
2022/05/29 07:36:18;;;;;;;;;1.00;1.00;;;;;28.49;21.32;101249.47;4914189;28;45476;-81
2022/05/29 07:38:44;;;;;;;;;2.00;2.00;;;;;28.58;21.03;101248.16;4915401;28;45345;-80
2022/05/29 07:43:55;;;;;;;;;2.00;2.00;;;;;29.22;21.26;101267.75;4917763;28;45292;-80
2022/05/29 07:46:20;;;;;;;;;2.00;1.00;;;;;28.95;20.56;101250.94;4918148;28;45345;-80
2022/05/29 07:48:46;;;;;;;;;0.00;0.00;;;;;28.91;20.23;101225.63;4916471;28;45647;-80
2022/05/29 07:51:11;;;;;;;;;3.67;1.00;;;;;29.22;20.63;101251.38;4917441;28;46083;-80
2022/05/29 07:53:37;;;;;;;;;3.00;1.00;;;;;29.47;20.25;101252.88;4917363;28;45792;-80
2022/05/29 07:56:04;;;;;;;;;0.33;0.33;;;;;29.69;20.01;101244.38;4917856;28;45375;-80
2022/05/29 07:58:29;;;;;;;;;1.33;1.33;;;;;29.67;19.93;101228.06;4898661;28;45381;-80
2022/05/29 08:00:55;;;;;;;;;0.00;0.00;;;;;29.62;19.54;101238.38;4898262;28;45447;-80
2022/05/29 08:03:22;;;;;;;;;1.00;1.00;;;;;29.64;19.55;101222.75;4898511;28;45501;-80
2022/05/29 08:05:47;;;;;;;;;1.00;1.00;;;;;30.04;19.65;101252.56;4913215;28;45271;-81
2022/05/29 08:08:13;;;;;;;;;2.00;1.00;;;;;30.03;19.36;101228.94;4898101;28;45575;-81
2022/05/29 08:10:42;;;;;;;;;2.00;1.00;;;;;30.26;19.00;101244.03;4897013;28;47844;-81
2022/05/29 08:13:08;;;;;;;;;3.00;1.00;;;;;30.26;19.13;101224.88;4898393;28;45413;-81
2022/05/29 08:15:35;;;;;;;;;1.67;1.00;;;;;30.32;18.77;101215.44;4898330;28;45467;-81
2022/05/29 08:18:01;;;;;;;;;1.00;1.00;;;;;30.48;18.29;101234.63;4898608;28;45449;-80
2022/05/29 08:20:27;;;;;;;;;1.00;1.00;;;;;29.88;18.30;101233.38;4898410;28;46213;-81
2022/05/29 08:22:52;;;;;;;;;1.00;1.00;;;;;29.54;19.34;101246.09;4897845;28;45485;-81
2022/05/29 08:30:51;;;;;;;;;2.00;2.00;;;;;29.70;18.71;101240.69;4898211;28;45515;-81
2022/05/29 08:33:20;;;;;;;;;1.33;1.33;;;;;29.80;18.19;101217.34;4898249;28;45564;-81
2022/05/29 08:35:49;;;;;;;;;1.00;1.00;;;;;29.86;18.74;101211.59;4897944;28;45389;-81
2022/05/29 08:38:17;;;;;;;;;1.00;1.00;;;;;30.08;18.47;101227.69;4898452;28;45445;-81
2022/05/29 08:41:02;;;;;;;;;1.00;1.00;;;;;30.23;18.68;101223.19;4897883;28;45714;-81
2022/05/29 08:44:01;;;;;;;;;1.00;1.00;;;;;30.38;18.45;101226.94;4898022;28;45495;-81
2022/05/29 08:46:34;;;;;;;;;0.00;0.00;;;;;30.09;17.07;101207.56;4901682;28;45561;-81
2022/05/29 08:49:00;;;;;;;;;0.67;0.67;;;;;30.15;17.41;101222.75;4898123;28;45341;-81
2022/05/29 08:51:53;;;;;;;;;3.00;0.00;;;;;30.37;17.42;101225.16;4897546;28;45976;-81
2022/05/29 08:54:56;;;;;;;;;1.00;1.00;;;;;30.52;17.73;101222.53;4912672;28;45683;-81
2022/05/29 08:57:43;;;;;;;;;1.00;1.00;;;;;30.19;17.09;101207.03;4908127;28;45331;-81
2022/05/29 09:00:18;;;;;;;;;0.33;0.00;;;;;30.14;16.62;101211.88;4917159;28;45545;-81
2022/05/29 09:02:58;;;;;;;;;1.00;1.00;;;;;30.08;17.14;101208.53;4916732;28;45531;-81
2022/05/29 09:05:55;;;;;;;;;2.00;1.00;;;;;29.88;16.45;101215.09;4916623;28;45320;-81
2022/05/29 09:08:27;;;;;;;;;0.33;0.33;;;;;30.17;16.90;101176.13;4913076;28;45484;-81
2022/05/29 09:11:01;;;;;;;;;1.00;1.00;;;;;30.43;16.61;101205.66;4916764;28;45411;-81
2022/05/29 09:13:37;;;;;;;;;0.67;0.67;;;;;30.39;17.33;101192.22;4916804;28;45413;-81
2022/05/29 09:16:09;;;;;;;;;1.00;0.00;;;;;30.69;17.18;101188.69;4915506;28;45352;-81
2022/05/29 09:18:39;;;;;;;;;1.00;1.00;;;;;30.56;16.93;101150.19;4916889;28;45304;-81
2022/05/29 09:21:08;;;;;;;;;3.67;3.00;;;;;30.76;16.56;101160.88;4916503;28;45607;-81
2022/05/29 09:23:46;;;;;;;;;2.67;2.67;;;;;31.26;17.11;101185.31;4915161;28;48003;-81
2022/05/29 09:26:18;;;;;;;;;3.67;3.00;;;;;31.28;16.58;101177.88;4916598;28;45425;-81
2022/05/29 09:28:44;;;;;;;;;3.00;1.00;;;;;31.29;15.95;101201.56;4916521;28;45416;-81
2022/05/29 09:31:15;;;;;;;;;1.00;1.00;;;;;30.89;16.65;101177.44;4916726;28;45246;-81
2022/05/29 09:33:41;;;;;;;;;1.00;0.33;;;;;30.86;16.84;101166.69;4916517;28;46564;-81
2022/05/29 09:36:18;;;;;;;;;0.00;0.00;;;;;31.05;16.04;101179.28;4914909;28;45988;-81
2022/05/29 09:39:07;;;;;;;;;1.00;1.00;;;;;30.69;16.38;101161.31;4916752;28;45502;-81
2022/05/29 09:41:55;;;;;;;;;2.00;1.00;;;;;30.65;16.82;101178.88;4915249;28;45343;-81
2022/05/29 09:44:22;;;;;;;;;1.00;1.00;;;;;30.45;17.16;101162.69;4916343;28;45337;-81
2022/05/29 09:46:50;;;;;;;;;2.00;2.00;;;;;30.62;17.36;101177.25;4916307;28;45858;-82
2022/05/29 09:52:20;;;;;;;;;1.00;1.00;;;;;30.05;17.41;101183.19;4916190;28;45317;-81
2022/05/29 09:54:56;;;;;;;;;2.00;1.00;;;;;30.07;17.33;101175.78;4916216;28;45471;-81
2022/05/29 09:57:27;;;;;;;;;1.00;1.00;;;;;30.06;17.37;101171.28;4914796;28;46144;-81
2022/05/29 10:00:01;;;;;;;;;0.00;0.00;;;;;29.95;17.41;101169.16;4916446;28;45403;-81
2022/05/29 10:02:31;;;;;;;;;2.33;1.00;;;;;29.86;17.79;101165.09;4915439;28;45527;-81
2022/05/29 10:04:59;;;;;;;;;1.00;1.00;;;;;29.94;17.14;101161.91;4914369;28;47231;-81
2022/05/29 10:07:30;;;;;;;;;2.33;2.00;;;;;30.05;17.28;101150.38;4916416;28;45387;-80
2022/05/29 10:10:02;;;;;;;;;1.00;1.00;;;;;30.24;16.58;101170.25;4916328;28;45321;-80
2022/05/29 10:12:39;;;;;;;;;0.00;0.00;;;;;30.20;16.11;101165.03;4916334;28;45576;-80
2022/05/29 10:15:12;;;;;;;;;3.00;3.00;;;;;30.33;15.66;101152.41;4916029;28;46395;-81
2022/05/29 10:17:38;;;;;;;;;1.00;1.00;;;;;30.69;15.76;101137.56;4915654;28;45492;-81
2022/05/29 10:20:25;;;;;;;;;1.00;1.00;;;;;31.18;15.66;101132.81;4916112;28;45358;-81
2022/05/29 10:22:55;;;;;;;;;0.00;0.00;;;;;31.39;15.36;101139.72;4916006;28;45531;-81
2022/05/29 10:26:01;;;;;;;;;2.00;2.00;;;;;31.34;16.03;101139.13;4915875;28;45549;-81
2022/05/29 10:28:38;;;;;;;;;1.67;1.67;;;;;31.41;15.74;101146.00;4914520;28;45495;-81
2022/05/29 10:31:12;;;;;;;;;2.33;2.00;;;;;31.60;15.61;101145.75;4916096;28;45391;-81
2022/05/29 10:33:37;;;;;;;;;1.00;1.00;;;;;31.29;15.25;101122.97;4915619;28;45524;-81
2022/05/29 10:36:18;;;;;;;;;3.00;1.00;;;;;31.18;15.83;101138.31;4915591;28;46441;-81
2022/05/29 10:38:46;;;;;;;;;2.00;2.00;;;;;31.16;16.04;101129.31;4915882;28;45511;-81
2022/05/29 10:41:12;;;;;;;;;2.33;2.00;;;;;30.97;16.49;101122.19;4915944;28;45514;-81
2022/05/29 10:43:45;;;;;;;;;2.00;2.00;;;;;30.89;16.94;101140.97;4915882;28;45483;-81
2022/05/29 10:46:13;;;;;;;;;2.00;2.00;;;;;30.82;17.42;101139.56;4914408;28;48220;-81
2022/05/29 10:48:48;;;;;;;;;2.00;2.00;;;;;30.74;17.02;101140.00;4915709;28;45535;-81
2022/05/29 10:51:21;;;;;;;;;1.00;1.00;;;;;30.95;16.98;101133.22;4914414;28;45431;-81
2022/05/29 10:53:59;;;;;;;;;1.33;1.33;;;;;30.80;17.22;101131.41;4915708;28;45406;-80
2022/05/29 10:57:15;;;;;;;;;3.00;2.67;;;;;30.92;17.08;101140.75;4915440;28;45551;-81
2022/05/29 10:59:52;;;;;;;;;2.00;2.00;;;;;30.95;17.26;101121.41;4954526;28;45743;-81
2022/05/29 11:05:28;;;;;;;;;3.67;2.00;;;;;30.67;17.23;101117.56;4954609;28;45407;-81
2022/05/29 11:08:13;;;;;;;;;1.67;1.67;;;;;30.65;17.46;101125.03;4954214;28;46401;-81
2022/05/29 11:11:18;;;;;;;;;4.00;4.00;;;;;30.83;16.84;101134.00;4954456;28;45420;-81
2022/05/29 11:13:59;;;;;;;;;4.33;4.00;;;;;31.11;17.10;101119.50;4953553;28;45327;-81
2022/05/29 11:16:50;;;;;;;;;1.33;1.33;;;;;30.79;16.62;101107.75;4954257;28;45467;-81
2022/05/29 11:19:34;;;;;;;;;3.00;1.00;;;;;30.99;16.43;101116.63;4954180;28;45414;-81
2022/05/29 11:22:16;;;;;;;;;1.67;1.67;;;;;30.76;16.56;101088.78;4954028;28;45370;-81
2022/05/29 11:24:41;;;;;;;;;1.00;1.00;;;;;30.68;16.59;101113.88;4954422;28;45447;-81
2022/05/29 11:27:24;;;;;;;;;7.00;5.00;;;;;30.81;16.40;101108.53;4954212;28;45307;-81
2022/05/29 11:30:35;;;;;;;;;1.67;1.67;;;;;30.66;16.25;101101.25;4941232;28;45457;-81
2022/05/29 11:33:09;;;;;;;;;4.00;3.00;;;;;30.68;16.64;101116.63;4936380;28;45429;-81
2022/05/29 11:35:46;;;;;;;;;5.00;2.00;;;;;31.14;16.19;101099.25;4915202;28;45376;-81
2022/05/29 11:38:30;;;;;;;;;2.00;2.00;;;;;31.13;16.11;101092.88;4913822;28;45425;-81
2022/05/29 11:41:06;;;;;;;;;2.00;2.00;;;;;31.18;16.32;101089.88;4914653;28;46239;-81
2022/05/29 11:43:47;;;;;;;;;1.33;1.33;;;;;31.01;15.81;101104.59;4914857;28;45385;-81
2022/05/29 11:52:12;;;;;;;;;7.00;7.00;;;;;31.69;15.79;101067.47;4915682;28;45459;-80
2022/05/29 11:54:44;;;;;;;;;2.33;2.33;;;;;31.60;15.71;101068.06;4913439;28;45406;-81
2022/05/29 11:57:19;;;;;;;;;6.00;2.00;;;;;31.50;15.58;101066.88;4914772;28;45408;-81
2022/05/29 12:00:03;;;;;;;;;2.33;1.33;;;;;31.67;15.65;101047.47;4914611;28;45331;-81
2022/05/29 12:02:53;;;;;;;;;2.00;2.00;;;;;32.04;15.47;101075.25;4914619;28;46330;-81
2022/05/29 12:05:31;;;;;;;;;1.00;1.00;;;;;31.74;15.20;101068.03;4913385;28;46172;-81
2022/05/29 12:08:29;;;;;;;;;1.00;1.00;;;;;31.39;15.40;101059.31;4914840;28;45375;-81
2022/05/29 12:11:03;;;;;;;;;0.00;0.00;;;;;31.38;15.69;101066.69;4914470;28;45340;-81
2022/05/29 12:13:36;;;;;;;;;2.00;2.00;;;;;31.47;15.36;101048.75;4914162;28;46570;-81
2022/05/29 12:16:12;;;;;;;;;2.00;2.00;;;;;31.74;15.76;101032.38;4914537;28;45324;-81
2022/05/29 12:18:52;;;;;;;;;2.33;1.00;;;;;31.92;14.74;101035.75;4913290;28;45377;-81
2022/05/29 12:21:29;;;;;;;;;0.67;0.67;;;;;32.27;15.52;101037.16;4914487;28;45589;-81
2022/05/29 12:23:58;;;;;;;;;1.00;1.00;;;;;31.78;16.03;101030.31;4914275;28;46513;-81
2022/05/29 12:26:29;;;;;;;;;2.00;1.67;;;;;31.97;15.72;101030.84;4916698;28;45213;-81